createdAt,value
2023-02-09T00:04:06.076Z,-6.00
2023-02-09T00:09:10.892Z,-6.10
2023-02-09T00:14:16.216Z,-6.10
2023-02-09T00:19:21.210Z,-6.30
2023-02-09T00:24:26.300Z,-6.30
2023-02-09T00:29:29.571Z,-6.40
2023-02-09T00:34:33.977Z,-6.30
2023-02-09T00:39:38.679Z,-6.20
2023-02-09T00:44:42.109Z,-6.20
2023-02-09T00:49:45.540Z,-6.20
2023-02-09T00:54:50.221Z,-6.30
2023-02-09T00:59:53.374Z,-6.40
2023-02-09T01:04:56.683Z,-6.40
2023-02-09T01:10:03.085Z,-6.40
2023-02-09T01:15:06.765Z,-6.40
2023-02-09T01:20:11.432Z,-6.50
2023-02-09T01:25:16.130Z,-6.60
2023-02-09T01:30:19.341Z,-6.50
2023-02-09T01:35:22.800Z,-6.50
2023-02-09T01:40:27.668Z,-6.60
2023-02-09T01:45:35.179Z,-6.60
2023-02-09T01:50:42.294Z,-6.80
2023-02-09T01:55:52.652Z,-6.80
2023-02-09T02:00:56.803Z,-6.90
2023-02-09T02:06:05.855Z,-6.90
2023-02-09T02:11:12.032Z,-7.10
2023-02-09T02:16:29.803Z,-7.20
2023-02-09T02:22:10.295Z,-7.10
2023-02-09T02:27:26.267Z,-7.10
2023-02-09T02:32:40.269Z,-7.00
2023-02-09T02:37:56.072Z,-7.00
2023-02-09T02:43:08.940Z,-7.10
2023-02-09T02:48:25.688Z,-7.10
2023-02-09T02:53:32.437Z,-7.20
2023-02-09T02:58:37.876Z,-7.10
2023-02-09T03:03:45.652Z,-7.20
2023-02-09T03:08:54.646Z,-7.30
2023-02-09T03:14:18.846Z,-7.40
2023-02-09T03:19:36.669Z,-7.40
2023-02-09T03:24:47.674Z,-7.40
2023-02-09T03:29:53.803Z,-7.50
2023-02-09T03:34:59.198Z,-7.50
2023-02-09T03:40:02.573Z,-7.50
2023-02-09T03:45:08.134Z,-7.50
2023-02-09T03:50:12.905Z,-7.60
2023-02-09T03:55:17.343Z,-7.60
2023-02-09T04:00:21.333Z,-7.70
2023-02-09T04:05:26.163Z,-7.70
2023-02-09T04:10:29.598Z,-7.70
2023-02-09T04:15:32.932Z,-7.70
2023-02-09T04:20:37.649Z,-7.70
2023-02-09T04:25:41.008Z,-7.80
2023-02-09T04:30:44.891Z,-7.90
2023-02-09T04:35:50.012Z,-7.90
2023-02-09T04:40:55.292Z,-7.90
2023-02-09T04:45:59.039Z,-7.80
2023-02-09T04:51:03.715Z,-7.70
2023-02-09T04:56:07.901Z,-7.70
2023-02-09T05:01:13.761Z,-7.80
2023-02-09T05:06:19.126Z,-7.90
2023-02-09T05:11:24.671Z,-8.00
2023-02-09T05:16:28.739Z,-8.10
2023-02-09T05:21:33.646Z,-8.00
2023-02-09T05:26:37.004Z,-8.00
2023-02-09T05:31:40.484Z,-8.10
2023-02-09T05:36:45.349Z,-8.10
2023-02-09T05:42:06.242Z,-8.10
2023-02-09T05:47:09.717Z,-8.10
2023-02-09T05:52:15.218Z,-8.20
2023-02-09T05:57:19.667Z,-8.20
2023-02-09T06:02:23.300Z,-8.30
2023-02-09T06:07:27.917Z,-8.30
2023-02-09T06:12:34.935Z,-8.40
2023-02-09T06:17:38.592Z,-8.40
2023-02-09T06:22:43.166Z,-8.40
2023-02-09T06:27:46.445Z,-8.40
2023-02-09T06:32:49.996Z,-8.40
2023-02-09T06:37:58.272Z,-8.40
2023-02-09T06:43:01.578Z,-8.40
2023-02-09T06:48:06.631Z,-8.40
2023-02-09T06:53:11.372Z,-8.40
2023-02-09T06:58:14.710Z,-8.40
2023-02-09T07:03:17.966Z,-8.30
2023-02-09T07:08:22.733Z,-8.30
2023-02-09T07:13:26.071Z,-8.10
2023-02-09T07:18:30.058Z,-8.00
2023-02-09T07:23:35.085Z,-7.80
2023-02-09T07:28:38.492Z,-7.60
2023-02-09T07:33:41.810Z,-7.40
2023-02-09T07:38:46.629Z,-7.20
2023-02-09T07:43:50.140Z,-7.00
2023-02-09T07:48:53.482Z,-6.80
2023-02-09T07:54:01.603Z,-6.60
2023-02-09T07:59:04.997Z,-6.30
2023-02-09T08:04:08.253Z,-6.10
2023-02-09T08:09:14.517Z,-5.90
2023-02-09T08:14:22.121Z,-5.70
2023-02-09T08:19:25.916Z,-5.50
2023-02-09T08:24:31.971Z,-5.30
2023-02-09T08:29:35.327Z,-5.20
2023-02-09T08:34:39.641Z,-5.10
2023-02-09T08:39:46.038Z,-4.90
2023-02-09T08:44:49.431Z,-4.80
2023-02-09T08:49:53.485Z,-4.60
2023-02-09T08:55:07.754Z,-4.50
2023-02-09T09:00:12.910Z,-4.30
2023-02-09T09:05:16.618Z,-4.00
2023-02-09T09:10:21.459Z,-2.00
2023-02-09T09:15:24.884Z,0.30
2023-02-09T09:20:28.448Z,1.70
2023-02-09T09:25:33.216Z,2.70
2023-02-09T09:30:36.811Z,3.00
2023-02-09T09:35:40.023Z,3.60
2023-02-09T09:40:46.753Z,4.80
2023-02-09T09:45:50.636Z,5.10
2023-02-09T09:50:57.181Z,4.40
2023-02-09T09:56:05.463Z,4.70
2023-02-09T10:01:13.415Z,4.90
2023-02-09T10:06:19.269Z,5.00
2023-02-09T10:11:30.149Z,4.00
2023-02-09T10:16:38.342Z,2.70
2023-02-09T10:21:41.744Z,2.00
2023-02-09T10:27:04.162Z,1.10
2023-02-09T10:32:15.666Z,0.50
2023-02-09T10:37:22.753Z,0.30
2023-02-09T10:42:31.377Z,0.40
2023-02-09T10:47:34.739Z,0.50
2023-02-09T10:52:40.487Z,0.20
2023-02-09T10:57:45.320Z,0.20
2023-02-09T11:02:52.303Z,0.70
2023-02-09T11:07:59.065Z,0.90
2023-02-09T11:13:27.903Z,1.40
2023-02-09T11:19:01.480Z,1.50
2023-02-09T11:24:09.108Z,1.80
2023-02-09T11:29:23.457Z,2.10
2023-02-09T11:34:52.799Z,2.00
2023-02-09T11:40:03.029Z,2.10
2023-02-09T11:45:12.193Z,2.40
2023-02-09T11:50:25.519Z,2.40
2023-02-09T11:55:32.622Z,2.70
2023-02-09T12:00:56.027Z,2.60
2023-02-09T12:06:01.661Z,2.60
2023-02-09T12:11:16.521Z,2.70
2023-02-09T12:16:24.357Z,3.10
2023-02-09T12:21:32.422Z,3.20
2023-02-09T12:26:42.664Z,3.10
2023-02-09T12:32:24.929Z,3.40
2023-02-09T12:37:30.174Z,3.50
2023-02-09T12:42:41.747Z,3.90
2023-02-09T12:48:01.129Z,4.10
2023-02-09T12:53:46.956Z,4.40
2023-02-09T12:58:57.224Z,4.20
2023-02-09T13:04:05.828Z,4.30
2023-02-09T13:09:14.778Z,4.20
2023-02-09T13:14:19.677Z,4.10
2023-02-09T13:19:54.558Z,4.30
2023-02-09T13:25:01.006Z,4.20
2023-02-09T13:30:04.270Z,4.30
2023-02-09T13:35:21.496Z,4.50
2023-02-09T13:40:26.742Z,4.60
2023-02-09T13:45:30.885Z,4.50
2023-02-09T13:50:35.639Z,4.30
2023-02-09T13:55:40.899Z,4.30
2023-02-09T14:00:46.392Z,4.40
2023-02-09T14:05:57.081Z,4.40
2023-02-09T14:11:03.777Z,4.40
2023-02-09T14:16:08.047Z,4.60
2023-02-09T14:21:25.098Z,4.70
2023-02-09T14:26:30.237Z,4.70
2023-02-09T14:31:36.375Z,4.60
2023-02-09T14:36:41.689Z,4.60
2023-02-09T14:41:58.127Z,4.60
2023-02-09T14:47:02.502Z,4.60
2023-02-09T14:52:16.902Z,4.60
2023-02-09T14:57:32.083Z,4.50
2023-02-09T15:02:35.634Z,4.40
2023-02-09T15:07:43.174Z,4.40
2023-02-09T15:12:46.905Z,4.40
2023-02-09T15:17:51.850Z,4.30
2023-02-09T15:22:57.391Z,4.10
2023-02-09T15:28:02.964Z,4.10
2023-02-09T15:33:08.544Z,3.90
2023-02-09T15:38:16.291Z,3.80
2023-02-09T15:43:38.928Z,3.70
2023-02-09T15:48:42.947Z,3.50
2023-02-09T15:53:49.339Z,3.30
2023-02-09T15:58:53.570Z,3.10
2023-02-09T16:04:11.970Z,2.90
2023-02-09T16:09:22.636Z,2.70
2023-02-09T16:14:27.375Z,2.40
2023-02-09T16:19:30.909Z,2.20
2023-02-09T16:24:39.735Z,1.90
2023-02-09T16:29:43.010Z,1.60
2023-02-09T16:34:46.983Z,1.20
2023-02-09T16:39:51.706Z,1.10
2023-02-09T16:44:56.690Z,0.90
2023-02-09T16:50:01.918Z,0.70
2023-02-09T16:55:17.071Z,0.60
2023-02-09T17:00:25.300Z,0.60
2023-02-09T17:05:34.540Z,0.40
2023-02-09T17:10:48.420Z,0.20
2023-02-09T17:15:53.930Z,0.10
2023-02-09T17:21:02.821Z,0.00
2023-02-09T17:26:11.700Z,-0.20
2023-02-09T17:31:18.917Z,-0.40
2023-02-09T17:36:27.914Z,-0.60
2023-02-09T17:41:38.449Z,-0.80
2023-02-09T17:46:42.498Z,-0.90
2023-02-09T17:51:47.663Z,-1.10
2023-02-09T17:56:53.359Z,-1.30
2023-02-09T18:01:58.962Z,-1.50
2023-02-09T18:07:03.464Z,-1.70
2023-02-09T18:12:16.693Z,-1.80
2023-02-09T18:17:21.118Z,-1.90
2023-02-09T18:22:24.866Z,-2.00
2023-02-09T18:27:30.659Z,-2.20
2023-02-09T18:32:36.030Z,-2.20
2023-02-09T18:37:39.401Z,-2.20
2023-02-09T18:42:48.363Z,-2.20
2023-02-09T18:47:52.470Z,-2.30
2023-02-09T18:52:58.825Z,-2.40
2023-02-09T18:58:10.511Z,-2.30
2023-02-09T19:03:17.050Z,-2.40
2023-02-09T19:08:20.440Z,-2.10
2023-02-09T19:13:27.058Z,-2.20
2023-02-09T19:18:31.792Z,-2.40
2023-02-09T19:23:35.354Z,-2.60
2023-02-09T19:28:41.495Z,-2.60
2023-02-09T19:33:45.843Z,-2.70
2023-02-09T19:38:49.330Z,-2.90
2023-02-09T19:43:58.412Z,-3.10
2023-02-09T19:49:03.241Z,-3.20
2023-02-09T19:54:06.934Z,-3.30
2023-02-09T19:59:11.857Z,-3.50
2023-02-09T20:04:15.667Z,-3.60
2023-02-09T20:09:19.114Z,-3.70
2023-02-09T20:14:28.575Z,-3.60
2023-02-09T20:19:37.107Z,-3.60
2023-02-09T20:24:44.410Z,-3.50
2023-02-09T20:29:50.195Z,-3.60
2023-02-09T20:34:54.796Z,-3.60
2023-02-09T20:39:59.219Z,-3.70
2023-02-09T20:45:24.084Z,-3.80
2023-02-09T20:50:29.220Z,-4.00
2023-02-09T20:55:32.788Z,-4.10
2023-02-09T21:00:37.531Z,-4.10
2023-02-09T21:05:40.888Z,-4.00
2023-02-09T21:10:44.210Z,-3.90
2023-02-09T21:15:51.923Z,-3.80
2023-02-09T21:20:56.322Z,-3.90
2023-02-09T21:26:04.797Z,-4.00
2023-02-09T21:31:13.117Z,-4.10
2023-02-09T21:36:16.277Z,-4.20
2023-02-09T21:41:39.059Z,-4.30
2023-02-09T21:46:44.147Z,-4.40
2023-02-09T21:51:49.424Z,-4.30
2023-02-09T21:56:52.690Z,-4.30
2023-02-09T22:01:57.417Z,-4.30
2023-02-09T22:07:00.814Z,-4.40
2023-02-09T22:12:06.213Z,-4.50
2023-02-09T22:17:11.145Z,-4.50
2023-02-09T22:22:14.492Z,-4.60
2023-02-09T22:27:17.860Z,-4.80
2023-02-09T22:32:22.659Z,-4.80
2023-02-09T22:37:26.003Z,-4.80
2023-02-09T22:42:29.314Z,-4.90
2023-02-09T22:47:35.545Z,-4.90
2023-02-09T22:52:39.389Z,-4.80
2023-02-09T22:57:43.098Z,-4.80
2023-02-09T23:02:48.894Z,-4.80
2023-02-09T23:07:52.228Z,-4.70
2023-02-09T23:12:55.534Z,-4.40
2023-02-09T23:18:00.435Z,-4.40
2023-02-09T23:23:06.674Z,-4.50
2023-02-09T23:28:09.897Z,-4.60
2023-02-09T23:33:14.943Z,-4.70
2023-02-09T23:38:20.125Z,-4.80
2023-02-09T23:43:23.452Z,-4.90
2023-02-09T23:48:30.416Z,-4.90
2023-02-09T23:53:35.004Z,-5.10
2023-02-09T23:58:40.303Z,-5.10
